BAW16PA TAPA-TKPK
Flight info
| Callsign | BAW16PA |
|---|---|
| Flight time | 0h 19m |
| Altitude | 8000 |
| Route | ANU G633 SKB |
| Aircraft | B772/H-SDE1E3FGHIJ3J5J6M1M2P2RWXYZ/LB1D1 |
Departure
| Time | 2026-04-21 17:45 |
|---|---|
| Airport | V. C. Bird International Airport (TAPA) |
Arrival
| Time | 2026-04-21 18:04 |
|---|---|
| Airport | Robert L. Bradshaw International Airport (TKPK) |
| Time | Latitude | Longitude | Altitude | Speed | Heading |
|---|---|---|---|---|---|
| 2026-04-21 17:24 | 17.14062 | -61.79095 | 61 ft | 0 kts | 328° |
| 2026-04-21 17:37 | 17.14058 | -61.79092 | 68 ft | 4 kts | 328° |
| 2026-04-21 17:38 | 17.14039 | -61.79080 | 58 ft | 3 kts | 328° |
| 2026-04-21 17:38 | 17.14018 | -61.79063 | 58 ft | 4 kts | 304° |
| 2026-04-21 17:38 | 17.14009 | -61.79038 | 58 ft | 4 kts | 266° |
| 2026-04-21 17:38 | 17.14016 | -61.79014 | 58 ft | 1 kts | 239° |
| 2026-04-21 17:41 | 17.14000 | -61.79041 | 58 ft | 10 kts | 238° |
| 2026-04-21 17:41 | 17.13949 | -61.79108 | 60 ft | 13 kts | 212° |
| 2026-04-21 17:41 | 17.13865 | -61.79123 | 64 ft | 13 kts | 160° |
| 2026-04-21 17:41 | 17.13784 | -61.79092 | 63 ft | 13 kts | 198° |
| 2026-04-21 17:42 | 17.13721 | -61.79184 | 62 ft | 19 kts | 239° |
| 2026-04-21 17:42 | 17.13638 | -61.79326 | 65 ft | 26 kts | 238° |
| 2026-04-21 17:42 | 17.13534 | -61.79504 | 64 ft | 32 kts | 238° |
| 2026-04-21 17:42 | 17.13407 | -61.79719 | 65 ft | 37 kts | 238° |
| 2026-04-21 17:43 | 17.13270 | -61.79950 | 62 ft | 37 kts | 238° |
| 2026-04-21 17:43 | 17.13141 | -61.80169 | 63 ft | 35 kts | 239° |
| 2026-04-21 17:43 | 17.13024 | -61.80369 | 68 ft | 26 kts | 238° |
| 2026-04-21 17:43 | 17.12943 | -61.80479 | 66 ft | 18 kts | 210° |
| 2026-04-21 17:44 | 17.12857 | -61.80561 | 69 ft | 11 kts | 244° |
| 2026-04-21 17:44 | 17.12908 | -61.80564 | 70 ft | 15 kts | 59° |
| 2026-04-21 17:44 | 17.13028 | -61.80363 | 67 ft | 61 kts | 58° |
| 2026-04-21 17:44 | 17.13416 | -61.79703 | 84 ft | 148 kts | 58° |
| 2026-04-21 17:45 | 17.14015 | -61.78721 | 781 ft | 166 kts | 58° |
| 2026-04-21 17:45 | 17.14666 | -61.77718 | 1747 ft | 175 kts | 47° |
| 2026-04-21 17:45 | 17.15842 | -61.77061 | 2103 ft | 215 kts | 11° |
| 2026-04-21 17:45 | 17.17395 | -61.77362 | 2509 ft | 247 kts | 330° |
| 2026-04-21 17:46 | 17.18583 | -61.78750 | 3032 ft | 274 kts | 296° |
| 2026-04-21 17:46 | 17.18998 | -61.80797 | 3330 ft | 304 kts | 272° |
| 2026-04-21 17:46 | 17.18971 | -61.83046 | 4079 ft | 313 kts | 268° |
| 2026-04-21 17:46 | 17.18892 | -61.85351 | 4913 ft | 321 kts | 269° |
| 2026-04-21 17:47 | 17.18854 | -61.87675 | 5976 ft | 318 kts | 270° |
| 2026-04-21 17:47 | 17.18862 | -61.89955 | 6880 ft | 320 kts | 271° |
| 2026-04-21 17:47 | 17.18910 | -61.92294 | 7663 ft | 324 kts | 271° |
| 2026-04-21 17:47 | 17.18987 | -61.94665 | 8428 ft | 328 kts | 272° |
| 2026-04-21 17:48 | 17.19049 | -61.96248 | 8961 ft | 330 kts | 272° |
| 2026-04-21 17:48 | 17.19191 | -61.99474 | 9900 ft | 333 kts | 273° |
| 2026-04-21 17:48 | 17.19304 | -62.01918 | 10021 ft | 341 kts | 272° |
| 2026-04-21 17:48 | 17.19317 | -62.04442 | 10030 ft | 352 kts | 269° |
| 2026-04-21 17:49 | 17.19309 | -62.07011 | 10019 ft | 354 kts | 271° |
| 2026-04-21 17:49 | 17.19375 | -62.09551 | 10016 ft | 354 kts | 272° |
| 2026-04-21 17:49 | 17.19509 | -62.12118 | 10013 ft | 354 kts | 274° |
| 2026-04-21 17:49 | 17.19686 | -62.14683 | 10011 ft | 353 kts | 275° |
| 2026-04-21 17:50 | 17.19883 | -62.17243 | 10014 ft | 353 kts | 275° |
| 2026-04-21 17:50 | 17.20084 | -62.19802 | 10014 ft | 353 kts | 275° |
| 2026-04-21 17:50 | 17.20279 | -62.22361 | 10014 ft | 351 kts | 274° |
| 2026-04-21 17:50 | 17.20208 | -62.24902 | 10022 ft | 353 kts | 264° |
| 2026-04-21 17:51 | 17.19844 | -62.27460 | 10029 ft | 357 kts | 260° |
| 2026-04-21 17:51 | 17.19398 | -62.30009 | 10031 ft | 356 kts | 259° |
| 2026-04-21 17:51 | 17.18955 | -62.32515 | 10026 ft | 355 kts | 260° |
| 2026-04-21 17:51 | 17.18524 | -62.35052 | 10028 ft | 354 kts | 261° |
| 2026-04-21 17:52 | 17.18111 | -62.37585 | 10030 ft | 353 kts | 261° |
| 2026-04-21 17:52 | 17.17711 | -62.40117 | 10036 ft | 351 kts | 261° |
| 2026-04-21 17:52 | 17.17330 | -62.42583 | 10024 ft | 335 kts | 261° |
| 2026-04-21 17:52 | 17.16971 | -62.44927 | 10022 ft | 318 kts | 261° |
| 2026-04-21 17:53 | 17.16633 | -62.47146 | 10028 ft | 302 kts | 261° |
| 2026-04-21 17:53 | 17.16311 | -62.49260 | 9992 ft | 289 kts | 261° |
| 2026-04-21 17:53 | 17.15998 | -62.51322 | 9719 ft | 285 kts | 261° |
| 2026-04-21 17:53 | 17.15693 | -62.53332 | 9450 ft | 283 kts | 261° |
| 2026-04-21 17:54 | 17.15385 | -62.55356 | 9167 ft | 282 kts | 261° |
| 2026-04-21 17:54 | 17.15077 | -62.57381 | 8861 ft | 282 kts | 261° |
| 2026-04-21 17:54 | 17.14770 | -62.59399 | 8574 ft | 281 kts | 261° |
| 2026-04-21 17:54 | 17.14463 | -62.61413 | 8266 ft | 280 kts | 261° |
| 2026-04-21 17:55 | 17.14157 | -62.63420 | 7981 ft | 279 kts | 261° |
| 2026-04-21 17:55 | 17.13852 | -62.65421 | 7682 ft | 278 kts | 261° |
| 2026-04-21 17:55 | 17.13547 | -62.67415 | 7386 ft | 277 kts | 261° |
| 2026-04-21 17:55 | 17.13248 | -62.69371 | 7092 ft | 276 kts | 261° |
| 2026-04-21 17:56 | 17.12945 | -62.71347 | 6803 ft | 275 kts | 261° |
| 2026-04-21 17:56 | 17.12644 | -62.73313 | 6505 ft | 273 kts | 261° |
| 2026-04-21 17:56 | 17.12343 | -62.75273 | 6196 ft | 273 kts | 261° |
| 2026-04-21 17:56 | 17.12043 | -62.77233 | 5861 ft | 273 kts | 261° |
| 2026-04-21 17:57 | 17.11742 | -62.79191 | 5547 ft | 272 kts | 261° |
| 2026-04-21 17:57 | 17.11442 | -62.81141 | 5260 ft | 271 kts | 261° |
| 2026-04-21 17:57 | 17.11203 | -62.83075 | 4926 ft | 264 kts | 271° |
| 2026-04-21 17:57 | 17.11662 | -62.84886 | 4665 ft | 266 kts | 303° |
| 2026-04-21 17:58 | 17.12915 | -62.86292 | 4359 ft | 265 kts | 326° |
| 2026-04-21 17:58 | 17.14448 | -62.87342 | 4070 ft | 260 kts | 329° |
| 2026-04-21 17:58 | 17.15908 | -62.88337 | 3941 ft | 241 kts | 328° |
| 2026-04-21 17:58 | 17.17289 | -62.89226 | 3811 ft | 226 kts | 339° |
| 2026-04-21 17:59 | 17.18766 | -62.89434 | 3731 ft | 211 kts | 14° |
| 2026-04-21 17:59 | 17.20061 | -62.88843 | 3714 ft | 199 kts | 35° |
| 2026-04-21 17:59 | 17.21031 | -62.87870 | 3607 ft | 196 kts | 54° |
| 2026-04-21 17:59 | 17.21792 | -62.86694 | 3540 ft | 194 kts | 57° |
| 2026-04-21 18:00 | 17.22535 | -62.85500 | 3328 ft | 197 kts | 57° |
| 2026-04-21 18:00 | 17.23277 | -62.84314 | 3092 ft | 192 kts | 57° |
| 2026-04-21 18:00 | 17.23998 | -62.83159 | 2797 ft | 187 kts | 57° |
| 2026-04-21 18:00 | 17.24703 | -62.82033 | 2527 ft | 182 kts | 57° |
| 2026-04-21 18:01 | 17.25391 | -62.80941 | 2290 ft | 177 kts | 57° |
| 2026-04-21 18:01 | 17.26052 | -62.79895 | 2043 ft | 169 kts | 57° |
| 2026-04-21 18:01 | 17.26680 | -62.78897 | 1776 ft | 162 kts | 57° |
| 2026-04-21 18:01 | 17.27275 | -62.77953 | 1528 ft | 148 kts | 57° |
| 2026-04-21 18:02 | 17.27812 | -62.77104 | 1370 ft | 132 kts | 57° |
| 2026-04-21 18:02 | 17.28004 | -62.76801 | 1348 ft | 131 kts | 57° |
| 2026-04-21 18:02 | 17.28340 | -62.76269 | 1291 ft | 137 kts | 57° |
| 2026-04-21 18:02 | 17.28869 | -62.75434 | 942 ft | 134 kts | 57° |
| 2026-04-21 18:03 | 17.29372 | -62.74634 | 733 ft | 131 kts | 58° |
| 2026-04-21 18:03 | 17.29879 | -62.73823 | 524 ft | 134 kts | 57° |
| 2026-04-21 18:03 | 17.30383 | -62.73029 | 299 ft | 131 kts | 57° |
| 2026-04-21 18:03 | 17.30880 | -62.72247 | 181 ft | 121 kts | 57° |
| 2026-04-21 18:04 | 17.31252 | -62.71660 | 175 ft | 65 kts | 57° |
| 2026-04-21 18:04 | 17.31394 | -62.71435 | 172 ft | 12 kts | 56° |
| 2026-04-21 18:04 | 17.31417 | -62.71378 | 172 ft | 6 kts | 120° |
| 2026-04-21 18:04 | 17.31376 | -62.71383 | 170 ft | 8 kts | 209° |
| 2026-04-21 18:05 | 17.31319 | -62.71419 | 167 ft | 12 kts | 211° |
| 2026-04-21 18:05 | 17.31253 | -62.71461 | 165 ft | 11 kts | 213° |
| 2026-04-21 18:05 | 17.31206 | -62.71517 | 165 ft | 10 kts | 234° |
| 2026-04-21 18:05 | 17.31167 | -62.71579 | 164 ft | 10 kts | 237° |
| 2026-04-21 18:06 | 17.31115 | -62.71620 | 164 ft | 10 kts | 198° |
| 2026-04-21 18:06 | 17.31062 | -62.71632 | 164 ft | 7 kts | 180° |
| 2026-04-21 18:06 | 17.31026 | -62.71626 | 164 ft | 3 kts | 168° |
| 2026-04-21 18:06 | 17.31008 | -62.71626 | 164 ft | 0 kts | 189° |